Time;durP1;ratioP1;P1;durP2;ratioP2;P2;SDS_P1;SDS_P2;PMS_P1;PMS_P2;Temp;Humidity;BMP_temperature;BMP_pressure;BME280_temperature;BME280_humidity;BME280_pressure;Samples;Min_cycle;Max_cycle;Signal;HPM_P1;HPM_P2
2022/03/01 05:01:50;;;;;;;21.88;10.13;;;-4.10;99.90;;;;;;5321541;22;90228;-74
2022/03/01 05:04:16;;;;;;;24.23;11.30;;;-4.10;99.90;;;;;;4942139;28;91444;-76
2022/03/01 05:06:41;;;;;;;23.33;10.20;;;-4.20;99.90;;;;;;4941806;28;93059;-77
2022/03/01 05:09:07;;;;;;;23.77;10.90;;;-4.30;99.90;;;;;;4959393;28;89420;-76
2022/03/01 05:11:33;;;;;;;23.38;10.50;;;-4.30;99.90;;;;;;4959914;28;90205;-76
2022/03/01 05:14:00;;;;;;;22.25;10.48;;;-4.40;99.90;;;;;;4959767;28;89543;-77
2022/03/01 05:16:25;;;;;;;23.25;10.63;;;-4.40;99.90;;;;;;4942567;28;93102;-75
2022/03/01 05:18:51;;;;;;;19.48;9.95;;;-4.40;99.90;;;;;;4959283;28;89266;-75
2022/03/01 05:21:16;;;;;;;22.88;11.02;;;-4.40;99.90;;;;;;4959696;28;89411;-75
2022/03/01 05:23:42;;;;;;;24.90;11.35;;;-4.40;99.90;;;;;;4959924;28;89711;-74
2022/03/01 05:26:07;;;;;;;25.83;10.98;;;-4.40;99.90;;;;;;4961409;28;90178;-75
2022/03/01 05:28:33;;;;;;;24.35;11.80;;;-4.40;99.90;;;;;;4962319;28;90343;-74
2022/03/01 05:30:58;;;;;;;22.98;11.93;;;-4.40;99.90;;;;;;4943946;28;89306;-77
2022/03/01 05:33:24;;;;;;;23.73;12.65;;;-4.40;99.90;;;;;;4959597;28;89966;-76
2022/03/01 05:35:50;;;;;;;28.80;12.18;;;-4.40;99.90;;;;;;4958198;28;92162;-76
2022/03/01 05:38:16;;;;;;;28.60;13.02;;;-4.40;99.90;;;;;;4959052;28;89639;-77
2022/03/01 05:40:42;;;;;;;27.52;12.93;;;-4.50;99.90;;;;;;4962513;28;89405;-76
2022/03/01 05:43:08;;;;;;;27.15;12.85;;;-4.40;99.90;;;;;;4945315;28;92136;-77
2022/03/01 05:45:34;;;;;;;23.45;12.00;;;-4.50;99.90;;;;;;4972225;28;89162;-75
2022/03/01 05:48:00;;;;;;;25.70;12.38;;;-4.50;99.90;;;;;;4960330;28;91842;-76
2022/03/01 05:50:28;;;;;;;29.17;13.18;;;-4.50;99.90;;;;;;4971136;28;89615;-76
2022/03/01 05:52:54;;;;;;;24.55;12.32;;;-4.50;99.90;;;;;;4941691;28;92052;-77
2022/03/01 05:55:20;;;;;;;24.15;12.75;;;-4.50;99.90;;;;;;4940682;28;91410;-76
2022/03/01 05:57:46;;;;;;;24.20;11.93;;;-4.50;99.90;;;;;;4957953;28;91286;-76
2022/03/01 06:00:14;;;;;;;28.50;13.35;;;-4.40;99.90;;;;;;4958505;28;90794;-76
2022/03/01 06:02:42;;;;;;;26.13;13.30;;;-4.40;99.90;;;;;;4940644;28;91027;-76
2022/03/01 06:05:08;;;;;;;26.20;11.68;;;-4.40;99.90;;;;;;4958852;28;89516;-76
2022/03/01 06:07:34;;;;;;;23.15;11.65;;;-4.50;99.90;;;;;;4959364;28;89830;-76
2022/03/01 06:09:59;;;;;;;22.77;10.85;;;-4.50;99.90;;;;;;4959554;28;89331;-76
2022/03/01 06:12:25;;;;;;;26.08;11.57;;;-4.50;99.90;;;;;;4959556;28;89370;-76
2022/03/01 06:14:51;;;;;;;24.67;12.23;;;-4.60;99.90;;;;;;4959531;28;89384;-76
2022/03/01 06:17:16;;;;;;;25.00;12.82;;;-4.60;99.90;;;;;;4960401;28;90127;-75
2022/03/01 06:19:42;;;;;;;25.25;11.10;;;-4.60;99.90;;;;;;4959189;28;89339;-76
2022/03/01 06:22:08;;;;;;;29.98;12.85;;;-4.60;99.90;;;;;;4942609;28;92950;-76
2022/03/01 06:24:35;;;;;;;26.63;12.50;;;-4.60;99.90;;;;;;4940439;28;92800;-76
2022/03/01 06:27:00;;;;;;;25.52;12.55;;;-4.60;99.90;;;;;;4940649;28;93694;-76
2022/03/01 06:29:26;;;;;;;25.67;12.27;;;-4.60;99.90;;;;;;4958447;28;89256;-76
2022/03/01 06:31:52;;;;;;;24.00;11.93;;;-4.50;99.90;;;;;;4958315;28;90967;-76
2022/03/01 06:34:17;;;;;;;25.75;12.27;;;-4.40;99.90;;;;;;4940237;28;92939;-75
2022/03/01 06:36:43;;;;;;;26.17;13.95;;;-4.30;99.90;;;;;;4959298;28;89422;-75
2022/03/01 06:39:08;;;;;;;25.10;13.02;;;-4.20;99.90;;;;;;4950904;28;89895;-77
2022/03/01 06:41:34;;;;;;;25.10;12.30;;;-4.10;99.90;;;;;;4970084;28;90214;-77
2022/03/01 06:44:00;;;;;;;27.33;12.07;;;-4.00;99.90;;;;;;4958470;28;89277;-78
2022/03/01 06:46:25;;;;;;;28.75;13.02;;;-3.90;99.90;;;;;;4958175;28;89682;-75
2022/03/01 06:48:51;;;;;;;32.08;15.27;;;-3.70;99.90;;;;;;4967012;28;90546;-76
2022/03/01 06:51:16;;;;;;;28.33;13.80;;;-3.60;99.90;;;;;;4957955;28;89703;-75
2022/03/01 06:53:42;;;;;;;34.47;14.23;;;-3.40;99.90;;;;;;4949508;28;92785;-77
2022/03/01 06:56:14;;;;;;;26.75;13.30;;;-3.40;99.90;;;;;;4958885;28;89756;-76
2022/03/01 06:58:39;;;;;;;26.23;12.38;;;-3.30;99.90;;;;;;4958988;28;89296;-77
2022/03/01 07:01:05;;;;;;;25.60;11.75;;;-3.30;99.90;;;;;;4957997;28;89707;-77
2022/03/01 07:03:31;;;;;;;24.27;11.55;;;-3.30;99.90;;;;;;4957192;28;90828;-77
2022/03/01 07:05:56;;;;;;;24.48;11.95;;;-3.20;99.90;;;;;;4959467;28;91649;-78
2022/03/01 07:08:23;;;;;;;20.13;10.07;;;-3.20;99.90;;;;;;4970325;28;89512;-78
2022/03/01 07:10:50;;;;;;;25.02;11.82;;;-3.10;99.90;;;;;;4954095;28;91593;-78
2022/03/01 07:13:15;;;;;;;23.48;11.35;;;-2.90;99.90;;;;;;4961160;28;93691;-78
2022/03/01 07:15:41;;;;;;;27.05;11.88;;;-2.90;99.90;;;;;;4978244;28;91208;-76
2022/03/01 07:18:07;;;;;;;20.95;10.35;;;-2.80;99.90;;;;;;4969618;28;89477;-76
2022/03/01 07:20:34;;;;;;;19.23;10.60;;;-2.60;99.90;;;;;;4976243;28;89248;-78
2022/03/01 07:23:05;;;;;;;22.23;10.75;;;-2.50;99.90;;;;;;4960000;28;91849;-78
2022/03/01 07:25:31;;;;;;;21.45;10.80;;;-2.40;99.90;;;;;;4945195;28;92028;-79
2022/03/01 07:27:56;;;;;;;22.45;11.43;;;-2.40;99.90;;;;;;4945544;28;89276;-77
2022/03/01 07:30:27;;;;;;;21.60;10.90;;;-2.40;99.90;;;;;;4950272;28;92138;-78
2022/03/01 07:32:55;;;;;;;22.35;10.90;;;-2.40;99.90;;;;;;4964815;28;89764;-78
2022/03/01 07:35:25;;;;;;;18.98;9.98;;;-2.30;99.90;;;;;;4968134;28;89968;-78
2022/03/01 07:37:51;;;;;;;21.25;10.70;;;-2.20;99.90;;;;;;4948243;28;90397;-78
2022/03/01 07:40:18;;;;;;;22.88;10.77;;;-2.10;99.90;;;;;;4947958;28;91724;-78
2022/03/01 07:42:44;;;;;;;22.17;11.70;;;-2.10;99.90;;;;;;4961212;28;90325;-76
2022/03/01 07:45:11;;;;;;;22.25;10.63;;;-2.00;99.90;;;;;;4940655;28;92461;-77
2022/03/01 07:47:36;;;;;;;23.45;11.20;;;-1.90;99.90;;;;;;4971432;28;89357;-79
2022/03/01 07:50:03;;;;;;;18.38;9.85;;;-1.70;99.90;;;;;;4972972;28;90193;-78
2022/03/01 07:52:29;;;;;;;18.98;9.45;;;-1.50;99.90;;;;;;4968854;28;91085;-78
2022/03/01 07:54:54;;;;;;;18.45;9.00;;;-1.10;99.90;;;;;;4950416;28;91398;-76
2022/03/01 07:57:35;;;;;;;17.58;8.40;;;-0.80;99.90;;;;;;4970216;28;89904;-77
2022/03/01 08:00:02;;;;;;;16.98;9.02;;;-0.60;99.90;;;;;;4944553;28;91221;-78
2022/03/01 08:02:28;;;;;;;16.65;8.73;;;-0.40;99.90;;;;;;4957558;28;91030;-78
2022/03/01 08:04:53;;;;;;;15.27;8.45;;;-0.20;99.90;;;;;;4958701;28;89903;-78
2022/03/01 08:07:19;;;;;;;18.20;8.77;;;-0.10;99.90;;;;;;4976303;28;89257;-81
2022/03/01 08:09:45;;;;;;;15.13;8.35;;;0.00;99.90;;;;;;4951236;28;93015;-76
2022/03/01 08:12:11;;;;;;;16.83;8.90;;;0.10;99.90;;;;;;4941222;28;92540;-76
2022/03/01 08:14:37;;;;;;;15.93;9.05;;;0.20;99.90;;;;;;4961234;28;90459;-79
2022/03/01 08:17:03;;;;;;;14.93;8.40;;;0.40;99.90;;;;;;4964701;28;90358;-78
2022/03/01 08:19:29;;;;;;;17.27;8.48;;;0.60;99.90;;;;;;4962298;28;90242;-75
2022/03/01 08:21:55;;;;;;;17.83;8.23;;;0.70;99.90;;;;;;4962606;28;90080;-79
2022/03/01 08:24:20;;;;;;;16.70;8.38;;;0.90;99.90;;;;;;4978008;28;89470;-78
2022/03/01 08:26:49;;;;;;;16.33;8.40;;;1.00;99.90;;;;;;4963872;28;90163;-78
2022/03/01 08:29:16;;;;;;;15.95;7.80;;;1.10;99.90;;;;;;4943493;28;92006;-76
2022/03/01 08:31:41;;;;;;;18.02;8.50;;;1.20;99.90;;;;;;4961532;28;90128;-77
2022/03/01 08:34:08;;;;;;;15.60;8.13;;;1.30;99.90;;;;;;4961449;28;89352;-77
2022/03/01 08:36:34;;;;;;;14.93;8.32;;;1.40;99.90;;;;;;4971587;28;89321;-77
2022/03/01 08:39:00;;;;;;;14.88;8.18;;;1.50;99.90;;;;;;4972174;28;90500;-77
2022/03/01 08:41:28;;;;;;;14.70;7.65;;;1.50;99.90;;;;;;4964320;28;89224;-77
2022/03/01 08:43:54;;;;;;;12.02;7.28;;;1.60;99.90;;;;;;4964919;28;89002;-77
2022/03/01 08:46:23;;;;;;;12.68;7.57;;;1.80;99.10;;;;;;4965039;28;89332;-77
2022/03/01 08:48:53;;;;;;;11.93;7.25;;;1.90;99.10;;;;;;4970276;28;90515;-76
2022/03/01 08:51:23;;;;;;;13.38;7.97;;;2.00;98.50;;;;;;4947946;28;93198;-76
2022/03/01 08:53:52;;;;;;;14.45;8.27;;;2.10;98.80;;;;;;4945728;28;92174;-76
2022/03/01 08:56:19;;;;;;;14.48;8.00;;;2.20;97.80;;;;;;4963199;28;89763;-74
2022/03/01 08:58:45;;;;;;;13.50;8.27;;;2.30;97.50;;;;;;4963539;28;89469;-74
2022/03/01 09:01:12;;;;;;;11.98;6.85;;;2.40;97.40;;;;;;4952254;28;91501;-76
2022/03/01 09:03:38;;;;;;;14.43;7.60;;;2.60;96.80;;;;;;4982034;28;89005;-80
2022/03/01 09:06:05;;;;;;;13.95;7.18;;;2.60;97.10;;;;;;4971338;28;89333;-77
2022/03/01 09:08:32;;;;;;;13.25;6.63;;;2.70;95.20;;;;;;4960588;28;89800;-76
2022/03/01 09:10:58;;;;;;;12.43;7.47;;;2.70;95.70;;;;;;4941807;28;92936;-75
2022/03/01 09:13:23;;;;;;;14.52;7.20;;;2.90;94.40;;;;;;4959983;28;89747;-75
2022/03/01 09:15:52;;;;;;;13.70;7.13;;;3.00;94.50;;;;;;4953812;28;90367;-80
2022/03/01 09:18:17;;;;;;;13.60;7.15;;;3.10;94.40;;;;;;4927872;28;90430;-78
2022/03/01 09:20:43;;;;;;;10.73;6.78;;;3.20;93.40;;;;;;4940137;28;90979;-76
2022/03/01 09:23:09;;;;;;;13.30;7.43;;;3.30;94.10;;;;;;4949867;28;90153;-77
2022/03/01 09:25:34;;;;;;;12.70;7.07;;;3.30;93.50;;;;;;4962979;28;89623;-77
2022/03/01 09:28:00;;;;;;;15.52;7.70;;;3.40;92.70;;;;;;4959078;28;90043;-76
2022/03/01 09:30:25;;;;;;;12.07;6.95;;;3.40;92.60;;;;;;4964239;28;89793;-77
2022/03/01 09:32:51;;;;;;;12.27;6.80;;;3.60;92.00;;;;;;4970036;28;89565;-77
2022/03/01 09:35:17;;;;;;;18.05;7.60;;;3.50;91.90;;;;;;4955486;28;89217;-76
2022/03/01 09:37:44;;;;;;;12.77;7.28;;;3.60;91.70;;;;;;4947882;28;93210;-77
2022/03/01 09:40:11;;;;;;;10.90;6.88;;;3.80;91.60;;;;;;4960129;28;90870;-77
2022/03/01 09:42:38;;;;;;;11.55;6.97;;;3.90;91.00;;;;;;4941925;28;92284;-77
2022/03/01 09:45:05;;;;;;;12.23;7.13;;;4.00;91.00;;;;;;4946160;28;90624;-77
2022/03/01 09:47:33;;;;;;;12.43;8.02;;;4.20;90.20;;;;;;4940303;28;90212;-77
2022/03/01 09:49:59;;;;;;;13.27;7.38;;;4.20;90.90;;;;;;4942012;28;90469;-77
2022/03/01 09:52:25;;;;;;;14.43;7.30;;;4.20;88.50;;;;;;4960040;28;91009;-77
2022/03/01 09:54:54;;;;;;;10.73;7.07;;;4.20;88.30;;;;;;4961229;28;89719;-76
2022/03/01 09:57:20;;;;;;;12.23;7.00;;;4.20;89.70;;;;;;4961843;28;88904;-76
2022/03/01 09:59:47;;;;;;;11.70;7.25;;;4.30;88.90;;;;;;4942573;28;91626;-77
2022/03/01 10:02:13;;;;;;;12.73;7.10;;;4.30;88.50;;;;;;4941338;28;92636;-77
2022/03/01 10:04:53;;;;;;;13.45;7.53;;;4.40;87.70;;;;;;4961420;28;90502;-77
2022/03/01 10:07:24;;;;;;;12.48;7.43;;;4.50;88.60;;;;;;4960716;28;90162;-76
2022/03/01 10:09:50;;;;;;;12.60;7.68;;;4.60;87.60;;;;;;4959579;28;89407;-76
2022/03/01 10:12:23;;;;;;;15.20;8.45;;;4.80;87.20;;;;;;4959698;28;91156;-77
2022/03/01 10:14:55;;;;;;;12.77;7.00;;;4.90;88.20;;;;;;4959793;28;89375;-76
2022/03/01 10:17:21;;;;;;;11.65;7.07;;;4.70;85.30;;;;;;4959866;28;89707;-75
2022/03/01 10:19:47;;;;;;;16.77;9.68;;;4.80;85.60;;;;;;4941138;28;93025;-74
2022/03/01 10:22:12;;;;;;;12.68;6.97;;;4.90;84.60;;;;;;4959604;28;90104;-78
2022/03/01 10:24:48;;;;;;;10.95;6.32;;;4.90;82.50;;;;;;4959875;28;89790;-75
2022/03/01 10:27:13;;;;;;;13.40;7.22;;;5.00;82.30;;;;;;4959233;28;90312;-76
2022/03/01 10:29:48;;;;;;;11.85;7.20;;;5.00;81.40;;;;;;4958528;28;93687;-77
2022/03/01 10:32:13;;;;;;;11.50;7.05;;;5.10;83.50;;;;;;4958498;28;90622;-77
2022/03/01 10:35:03;;;;;;;14.50;8.15;;;5.20;81.70;;;;;;4942140;28;89340;-79
2022/03/01 10:37:31;;;;;;;11.50;6.95;;;5.30;80.00;;;;;;4941512;28;91261;-76
2022/03/01 10:40:15;;;;;;;19.27;10.88;;;5.40;80.50;;;;;;4959107;28;89899;-76
2022/03/01 10:42:44;;;;;;;11.65;6.47;;;5.50;79.60;;;;;;4940648;28;92514;-76
2022/03/01 10:45:11;;;;;;;12.98;6.95;;;5.60;75.30;;;;;;4959472;28;89388;-77
2022/03/01 10:47:40;;;;;;;10.27;6.00;;;5.60;74.80;;;;;;4959857;28;89170;-76
2022/03/01 10:50:09;;;;;;;10.98;6.65;;;5.60;76.70;;;;;;4960210;28;89567;-76
2022/03/01 10:52:39;;;;;;;11.43;6.75;;;5.50;76.10;;;;;;4943149;28;89428;-77
2022/03/01 10:55:24;;;;;;;11.68;7.15;;;5.50;74.50;;;;;;4942618;28;90303;-75
2022/03/01 10:58:14;;;;;;;12.68;6.30;;;5.40;76.40;;;;;;4941861;28;91529;-75
2022/03/01 11:00:39;;;;;;;10.50;6.72;;;5.60;78.00;;;;;;4958345;28;89377;-76
2022/03/01 11:03:09;;;;;;;10.40;6.53;;;5.80;75.30;;;;;;4959259;28;90449;-77
2022/03/01 11:05:38;;;;;;;11.23;6.88;;;5.90;74.60;;;;;;4959481;28;89219;-76
2022/03/01 11:08:08;;;;;;;11.95;7.50;;;6.00;74.50;;;;;;4941375;28;92540;-77
2022/03/01 11:10:40;;;;;;;15.27;7.00;;;6.10;74.50;;;;;;4941435;28;92603;-76
2022/03/01 11:13:06;;;;;;;12.35;6.35;;;6.30;75.50;;;;;;4957956;28;89099;-75
2022/03/01 11:15:47;;;;;;;10.68;6.65;;;6.40;73.40;;;;;;4959196;28;89333;-77
2022/03/01 11:18:54;;;;;;;11.02;6.75;;;6.50;71.40;;;;;;4939006;28;89211;-76
2022/03/01 11:21:21;;;;;;;12.75;7.00;;;6.70;72.70;;;;;;4938552;28;90952;-77
2022/03/01 11:23:48;;;;;;;9.98;6.18;;;6.60;69.60;;;;;;4944929;28;89457;-76
2022/03/01 11:26:15;;;;;;;8.68;5.97;;;6.70;71.60;;;;;;4958774;28;89906;-77
2022/03/01 11:28:54;;;;;;;14.30;6.68;;;6.80;70.50;;;;;;4958989;28;89480;-77
2022/03/01 11:31:26;;;;;;;10.40;6.10;;;7.00;71.00;;;;;;4957086;28;91157;-76
2022/03/01 11:33:58;;;;;;;10.05;6.25;;;7.00;67.60;;;;;;4958055;28;89377;-78
2022/03/01 11:36:27;;;;;;;10.75;6.38;;;7.10;68.30;;;;;;4942105;28;89268;-76
2022/03/01 11:38:52;;;;;;;10.32;6.55;;;7.30;66.30;;;;;;4958567;28;89283;-76
2022/03/01 11:41:22;;;;;;;12.45;6.72;;;7.40;66.50;;;;;;4957666;28;89254;-77
2022/03/01 11:44:00;;;;;;;11.57;6.75;;;7.60;66.10;;;;;;4959146;28;90399;-76
2022/03/01 11:46:26;;;;;;;10.75;6.65;;;7.90;64.20;;;;;;4938007;28;90348;-76
2022/03/01 11:48:56;;;;;;;10.88;6.63;;;7.80;62.20;;;;;;4920585;28;92500;-77
2022/03/01 11:51:40;;;;;;;9.93;6.10;;;7.80;64.40;;;;;;4941338;28;89640;-77
2022/03/01 11:54:09;;;;;;;8.55;5.97;;;7.80;64.10;;;;;;4959912;28;89750;-77
2022/03/01 11:56:40;;;;;;;10.10;6.43;;;7.80;61.20;;;;;;4944177;28;89355;-77
2022/03/01 11:59:08;;;;;;;10.80;6.95;;;7.90;61.90;;;;;;4943295;28;93002;-77
2022/03/01 12:01:35;;;;;;;12.38;7.28;;;7.90;66.70;;;;;;4960993;28;90053;-76
2022/03/01 12:04:03;;;;;;;11.05;6.78;;;8.00;66.00;;;;;;4961769;28;89835;-77
2022/03/01 12:06:30;;;;;;;10.15;6.78;;;8.10;67.80;;;;;;4961172;28;90329;-77
2022/03/01 12:08:58;;;;;;;10.95;6.65;;;8.10;63.10;;;;;;4942671;28;91870;-77
2022/03/01 12:11:40;;;;;;;9.90;6.45;;;8.00;62.60;;;;;;4960517;28;90261;-76
2022/03/01 12:14:14;;;;;;;14.95;7.40;;;8.00;63.00;;;;;;4940812;28;92109;-77
2022/03/01 12:16:40;;;;;;;10.48;6.50;;;7.90;62.30;;;;;;4942539;28;89239;-77
2022/03/01 12:19:09;;;;;;;11.25;7.00;;;7.90;61.40;;;;;;4958358;28;91671;-77
2022/03/01 12:21:36;;;;;;;13.65;7.30;;;7.90;67.70;;;;;;4954810;28;92005;-77
2022/03/01 12:24:09;;;;;;;12.35;7.90;;;8.00;67.80;;;;;;4946097;28;91898;-78
2022/03/01 12:26:46;;;;;;;12.52;7.35;;;8.00;68.80;;;;;;4962365;28;89217;-77
2022/03/01 12:29:14;;;;;;;11.68;7.15;;;8.10;66.70;;;;;;4962284;28;90292;-75
2022/03/01 12:31:39;;;;;;;12.95;7.50;;;8.10;67.70;;;;;;4962327;28;89948;-76
2022/03/01 12:34:09;;;;;;;14.05;7.43;;;8.00;69.90;;;;;;4963415;28;89303;-76
2022/03/01 12:36:39;;;;;;;11.32;7.38;;;8.00;69.10;;;;;;4943702;28;90224;-77
2022/03/01 12:39:06;;;;;;;13.93;7.72;;;8.10;70.80;;;;;;4963441;28;89385;-76
2022/03/01 12:41:34;;;;;;;12.43;7.53;;;8.00;71.90;;;;;;4962644;28;89370;-77
2022/03/01 12:44:03;;;;;;;12.52;7.60;;;8.40;68.80;;;;;;4943128;28;91700;-77
2022/03/01 12:46:33;;;;;;;11.25;7.32;;;8.60;70.50;;;;;;4962051;28;89349;-77
2022/03/01 12:49:00;;;;;;;14.10;7.47;;;8.70;69.30;;;;;;4944131;28;91951;-77
2022/03/01 12:51:27;;;;;;;12.77;7.45;;;9.10;67.80;;;;;;4942748;28;91739;-78
2022/03/01 12:54:14;;;;;;;11.23;7.47;;;8.90;68.00;;;;;;4960228;28;91295;-76
2022/03/01 12:56:45;;;;;;;12.93;7.85;;;8.80;66.90;;;;;;4959954;28;89276;-75
2022/03/01 12:59:14;;;;;;;11.43;7.70;;;9.10;68.20;;;;;;4960617;28;89937;-76
2022/03/01 13:01:46;;;;;;;11.43;7.55;;;9.10;67.20;;;;;;4959728;28;90837;-77
2022/03/01 13:04:12;;;;;;;13.23;7.57;;;9.10;69.60;;;;;;4962361;28;89575;-75
2022/03/01 13:06:39;;;;;;;11.23;7.50;;;9.20;67.70;;;;;;4968783;28;89447;-76
2022/03/01 13:09:05;;;;;;;12.32;7.57;;;9.20;69.30;;;;;;4970399;28;89348;-78
2022/03/01 13:11:31;;;;;;;11.00;7.57;;;9.10;65.80;;;;;;4964851;28;89797;-76
2022/03/01 13:14:06;;;;;;;10.73;7.43;;;9.30;64.40;;;;;;4956867;28;90306;-77
2022/03/01 13:16:35;;;;;;;11.13;7.68;;;9.80;65.30;;;;;;4956773;28;89315;-77
2022/03/01 13:19:23;;;;;;;11.57;7.63;;;10.00;65.30;;;;;;4959817;28;89566;-76
2022/03/01 13:21:51;;;;;;;12.77;8.13;;;10.00;65.70;;;;;;4960226;28;89739;-74
2022/03/01 13:24:25;;;;;;;12.82;7.70;;;9.40;64.90;;;;;;4945655;28;91464;-76
2022/03/01 13:26:54;;;;;;;12.48;7.93;;;9.20;66.40;;;;;;4959392;28;90318;-75
2022/03/01 13:29:24;;;;;;;9.93;7.22;;;9.30;65.10;;;;;;4959305;28;89327;-76
2022/03/01 13:32:08;;;;;;;10.32;7.47;;;9.10;65.80;;;;;;4939641;28;92714;-76
2022/03/01 13:34:35;;;;;;;10.80;7.13;;;9.00;65.90;;;;;;4959636;28;89763;-76
2022/03/01 13:37:10;;;;;;;12.45;7.50;;;8.90;65.80;;;;;;4940491;28;89465;-75
2022/03/01 13:39:48;;;;;;;12.68;7.30;;;8.90;65.00;;;;;;4941032;28;93467;-76
2022/03/01 13:42:15;;;;;;;10.82;7.05;;;9.00;63.80;;;;;;4958931;28;89975;-75
2022/03/01 13:44:46;;;;;;;12.07;6.82;;;9.20;64.70;;;;;;4959492;28;89030;-76
2022/03/01 13:47:13;;;;;;;11.35;7.57;;;9.40;65.20;;;;;;4958378;28;89313;-75
2022/03/01 13:50:05;;;;;;;11.93;7.18;;;9.30;63.90;;;;;;4940865;28;89313;-76
2022/03/01 13:52:56;;;;;;;13.13;7.40;;;9.10;63.90;;;;;;4957819;28;91852;-78
2022/03/01 13:55:25;;;;;;;13.55;7.65;;;9.00;65.20;;;;;;4958944;28;89983;-75
2022/03/01 13:57:55;;;;;;;12.38;7.60;;;8.90;63.90;;;;;;4958956;28;89726;-76
2022/03/01 14:00:22;;;;;;;9.77;7.20;;;9.00;64.20;;;;;;4940603;28;93889;-75
2022/03/01 14:03:16;;;;;;;13.30;7.10;;;9.10;64.50;;;;;;4950291;28;92904;-77
2022/03/01 14:06:03;;;;;;;11.23;7.28;;;9.30;65.60;;;;;;4947235;28;92707;-76
2022/03/01 14:08:32;;;;;;;10.63;6.88;;;9.50;65.20;;;;;;4964665;28;89840;-76
2022/03/01 14:11:05;;;;;;;11.65;7.82;;;9.70;64.10;;;;;;4967252;28;89158;-76
2022/03/01 14:13:37;;;;;;;10.43;7.32;;;10.00;63.60;;;;;;4966467;28;89881;-75
2022/03/01 14:16:05;;;;;;;9.80;6.90;;;10.20;63.50;;;;;;4950466;28;91969;-75
2022/03/01 14:18:36;;;;;;;12.60;7.10;;;10.20;60.20;;;;;;4972532;28;90238;-75
2022/03/01 14:21:01;;;;;;;9.57;7.00;;;10.00;61.00;;;;;;4969508;28;90296;-77
2022/03/01 14:23:27;;;;;;;11.52;7.13;;;9.80;62.10;;;;;;4959093;28;90555;-76
2022/03/01 14:25:53;;;;;;;9.20;6.85;;;9.60;60.30;;;;;;4965067;28;89940;-75
2022/03/01 14:28:18;;;;;;;9.60;7.05;;;9.40;61.50;;;;;;4960799;28;89279;-81
2022/03/01 14:30:44;;;;;;;12.32;6.90;;;9.60;60.80;;;;;;4957954;28;90635;-78
2022/03/01 14:33:10;;;;;;;11.63;7.28;;;9.60;61.20;;;;;;4951063;28;90216;-76
2022/03/01 14:35:36;;;;;;;10.23;7.00;;;9.80;61.00;;;;;;4959926;28;90007;-76
2022/03/01 14:38:04;;;;;;;10.82;7.20;;;10.00;61.80;;;;;;4959013;28;89362;-76
2022/03/01 14:40:30;;;;;;;9.88;6.72;;;9.90;61.10;;;;;;4942779;28;91492;-76
2022/03/01 14:42:55;;;;;;;11.10;7.00;;;10.00;60.80;;;;;;4948476;28;93756;-75
2022/03/01 14:45:22;;;;;;;9.85;6.80;;;9.90;59.20;;;;;;4979183;28;89400;-77
2022/03/01 14:47:48;;;;;;;11.00;6.85;;;10.20;59.10;;;;;;4954661;28;89578;-77
2022/03/01 14:50:17;;;;;;;9.80;6.85;;;10.40;59.90;;;;;;4941346;28;92545;-77
2022/03/01 14:52:42;;;;;;;11.30;6.97;;;10.50;59.20;;;;;;4967652;28;92031;-78
2022/03/01 14:55:08;;;;;;;11.45;7.03;;;10.80;57.00;;;;;;4966379;28;89626;-77
2022/03/01 14:57:34;;;;;;;9.65;6.95;;;10.90;57.80;;;;;;4943899;28;89599;-80
2022/03/01 15:00:04;;;;;;;12.35;6.93;;;11.10;56.70;;;;;;4963854;28;89729;-80
2022/03/01 15:02:30;;;;;;;10.35;6.63;;;10.80;57.70;;;;;;4963784;28;89770;-81
2022/03/01 15:04:58;;;;;;;11.18;7.07;;;10.70;57.70;;;;;;4946664;28;91385;-81
2022/03/01 15:07:29;;;;;;;9.48;7.03;;;10.90;56.80;;;;;;4943051;28;90454;-78
2022/03/01 15:09:55;;;;;;;9.75;6.57;;;11.00;56.00;;;;;;4962259;28;89619;-76
2022/03/01 15:12:21;;;;;;;10.15;6.78;;;11.30;55.80;;;;;;4960109;28;89808;-76
2022/03/01 15:14:49;;;;;;;10.70;6.80;;;10.80;56.40;;;;;;4959569;28;90104;-78
2022/03/01 15:17:16;;;;;;;14.55;6.57;;;10.50;57.50;;;;;;4960968;28;89624;-77
2022/03/01 15:19:41;;;;;;;9.65;6.55;;;10.60;57.10;;;;;;4951262;28;89899;-77
2022/03/01 15:22:11;;;;;;;10.60;6.25;;;10.60;57.20;;;;;;4961281;28;89834;-77
2022/03/01 15:24:38;;;;;;;9.55;6.28;;;10.30;59.10;;;;;;4944282;28;92590;-78
2022/03/01 15:27:09;;;;;;;10.15;6.80;;;9.80;58.40;;;;;;4961093;28;89662;-78
2022/03/01 15:29:37;;;;;;;10.10;6.80;;;9.80;59.20;;;;;;4962217;28;93120;-77
2022/03/01 15:32:03;;;;;;;9.55;6.10;;;10.10;59.70;;;;;;4981273;28;90260;-77
2022/03/01 15:34:29;;;;;;;9.32;6.93;;;10.50;59.50;;;;;;4982260;28;92325;-77
2022/03/01 15:36:58;;;;;;;11.20;6.88;;;11.70;57.30;;;;;;4974717;28;89412;-76
2022/03/01 15:39:23;;;;;;;8.52;6.65;;;12.50;54.90;;;;;;4967779;28;89282;-76
2022/03/01 15:41:49;;;;;;;8.52;6.25;;;14.10;54.10;;;;;;4996123;28;90039;-76
2022/03/01 15:44:14;;;;;;;9.40;6.47;;;14.50;51.70;;;;;;4986547;28;89671;-76
2022/03/01 15:46:40;;;;;;;11.18;6.65;;;15.50;49.80;;;;;;4967465;28;89282;-75
2022/03/01 15:49:06;;;;;;;10.82;6.45;;;15.80;48.30;;;;;;4974703;28;90412;-76
2022/03/01 15:51:32;;;;;;;10.23;6.82;;;15.50;47.30;;;;;;4965987;28;89663;-75
2022/03/01 15:54:01;;;;;;;9.63;6.70;;;13.20;49.20;;;;;;4965925;28;89809;-76
2022/03/01 15:56:31;;;;;;;10.75;7.13;;;12.30;51.10;;;;;;4967244;28;90217;-75
2022/03/01 15:58:58;;;;;;;11.57;6.22;;;11.70;52.30;;;;;;4947517;28;92449;-76
2022/03/01 16:01:24;;;;;;;13.25;7.90;;;11.00;52.70;;;;;;4963581;28;89365;-76
2022/03/01 16:03:56;;;;;;;12.70;7.82;;;10.60;55.40;;;;;;4962893;28;90818;-77
2022/03/01 16:06:24;;;;;;;14.82;8.35;;;10.30;55.20;;;;;;4963475;28;89641;-75
2022/03/01 16:08:50;;;;;;;16.23;9.45;;;10.00;55.60;;;;;;4962465;28;89699;-76
2022/03/01 16:11:16;;;;;;;14.38;7.90;;;9.70;56.40;;;;;;4959912;28;89837;-77
2022/03/01 16:13:42;;;;;;;13.82;8.43;;;9.30;58.20;;;;;;4948256;28;92625;-77
2022/03/01 16:16:08;;;;;;;13.90;7.80;;;8.90;58.70;;;;;;4960522;28;89208;-76
2022/03/01 16:18:36;;;;;;;13.57;7.32;;;8.60;58.60;;;;;;4959320;28;89710;-76
2022/03/01 16:21:11;;;;;;;13.82;8.05;;;8.30;60.70;;;;;;4957775;28;92153;-76
2022/03/01 16:23:39;;;;;;;14.95;10.27;;;8.20;60.40;;;;;;4959131;28;90751;-76
2022/03/01 16:26:05;;;;;;;34.08;22.33;;;8.00;61.00;;;;;;4942113;28;89224;-75
2022/03/01 16:28:32;;;;;;;14.55;8.75;;;7.80;61.70;;;;;;4940511;28;91479;-75
2022/03/01 16:30:58;;;;;;;10.70;8.20;;;7.60;62.20;;;;;;4961833;28;90049;-76
2022/03/01 16:33:24;;;;;;;13.23;7.47;;;7.50;63.50;;;;;;4959939;28;89657;-76
2022/03/01 16:35:50;;;;;;;13.32;9.30;;;7.30;63.60;;;;;;4958342;28;89291;-76
2022/03/01 16:38:16;;;;;;;10.75;7.50;;;7.10;63.40;;;;;;4958770;28;89886;-75
2022/03/01 16:40:42;;;;;;;10.98;7.50;;;7.00;63.80;;;;;;4940785;28;93415;-76
2022/03/01 16:43:10;;;;;;;14.85;7.50;;;6.80;65.00;;;;;;4962544;28;90112;-76
2022/03/01 16:45:36;;;;;;;12.27;6.60;;;6.70;65.20;;;;;;4961528;28;90151;-74
2022/03/01 16:48:06;;;;;;;9.75;6.70;;;6.50;66.10;;;;;;4961350;28;90284;-76
2022/03/01 16:50:33;;;;;;;11.25;6.95;;;6.30;67.40;;;;;;4960868;28;90443;-76
2022/03/01 16:52:59;;;;;;;10.80;5.80;;;6.10;68.30;;;;;;4942793;28;89912;-74
2022/03/01 16:55:25;;;;;;;10.75;6.97;;;5.90;69.40;;;;;;4943033;28;89552;-74
2022/03/01 16:57:54;;;;;;;12.05;7.05;;;5.80;68.30;;;;;;4942990;28;93053;-74
2022/03/01 17:00:28;;;;;;;10.93;6.55;;;5.60;70.20;;;;;;4961091;28;89410;-74
2022/03/01 17:02:59;;;;;;;10.48;6.35;;;5.50;70.60;;;;;;4943807;28;90270;-75
2022/03/01 17:05:29;;;;;;;11.65;7.13;;;5.30;71.70;;;;;;4961359;28;89165;-75
2022/03/01 17:07:55;;;;;;;12.80;7.10;;;5.10;72.80;;;;;;4960373;28;90195;-75
2022/03/01 17:10:21;;;;;;;15.23;8.27;;;4.90;74.60;;;;;;4959275;28;90352;-74
2022/03/01 17:12:47;;;;;;;15.13;7.47;;;4.80;75.70;;;;;;4960653;28;91096;-75
2022/03/01 17:15:13;;;;;;;11.88;7.28;;;4.60;76.80;;;;;;4942503;28;89327;-77
2022/03/01 17:17:41;;;;;;;19.30;10.52;;;4.50;78.00;;;;;;4949056;28;90961;-76
2022/03/01 17:20:08;;;;;;;20.60;10.15;;;4.30;78.10;;;;;;4942526;28;92941;-78
2022/03/01 17:22:35;;;;;;;21.63;10.18;;;4.20;79.40;;;;;;4960451;28;90122;-78
2022/03/01 17:25:05;;;;;;;14.02;8.60;;;4.00;80.50;;;;;;4962308;28;90502;-77
2022/03/01 17:27:31;;;;;;;13.88;8.38;;;3.80;82.70;;;;;;4959192;28;90175;-80
2022/03/01 17:29:58;;;;;;;14.65;8.35;;;3.60;82.80;;;;;;4960980;28;89307;-78
2022/03/01 17:32:26;;;;;;;12.45;7.50;;;3.50;85.20;;;;;;4935723;28;91019;-78
2022/03/01 17:34:52;;;;;;;13.52;7.50;;;3.40;85.50;;;;;;4950482;28;90619;-77
2022/03/01 17:37:19;;;;;;;12.18;7.18;;;3.20;85.40;;;;;;4953922;28;89342;-77
2022/03/01 17:39:45;;;;;;;11.90;7.82;;;3.10;86.30;;;;;;4935020;28;92736;-78
2022/03/01 17:42:11;;;;;;;12.02;6.82;;;2.90;87.80;;;;;;4951080;28;91302;-77
2022/03/01 17:44:37;;;;;;;11.27;7.50;;;2.70;88.90;;;;;;4957532;28;89758;-77
2022/03/01 17:47:05;;;;;;;15.20;8.20;;;2.60;90.00;;;;;;4954069;28;89490;-79